This is the latest recevied weather packets stored in our database for station/object N7ZAP. If no packets are shown the sender has not sent any weather packets the latest 10 day(s).
| Time | Temp. | Humidity | Pressure | Rain* | Wind** | Luminosity | Snow |
|---|---|---|---|---|---|---|---|
| 1788677754 | 24.44° C | 34% | 1019.8 hPa | 0 mm | - | - | - |
| 1788677450 | 24.44° C | 34% | 1019.9 hPa | 0 mm | - | - | - |
| 1788677146 | 25° C | 34% | 1019.7 hPa | 0 mm | - | - | - |
| 1788676841 | 24.44° C | 34% | 1019.8 hPa | 0 mm | - | - | - |
| 1788676536 | 24.44° C | 34% | 1019.7 hPa | 0 mm | - | - | - |
| 1788676232 | 24.44° C | 34% | 1019.7 hPa | 0 mm | - | - | - |
| 1788675927 | 25° C | 34% | 1019.8 hPa | 0 mm | - | - | - |
| 1788675621 | 25° C | 34% | 1019.6 hPa | 0 mm | - | - | - |
| 1788675318 | 25° C | 35% | 1019.7 hPa | 0 mm | - | - | - |
| 1788675016 | 25.56° C | 37% | 1019.6 hPa | 0 mm | - | - | - |
| 1788674713 | 25.56° C | 38% | 1019.7 hPa | 0 mm | - | - | - |
| 1788674410 | 25.56° C | 39% | 1019.7 hPa | 0 mm | - | - | - |
| 1788674106 | 25.56° C | 39% | 1019.7 hPa | 0 mm | - | - | - |
| 1788673801 | 26.11° C | 39% | 1019.5 hPa | 0 mm | - | - | - |
| 1788673501 | 26.11° C | 38% | 1019.7 hPa | 0 mm | - | - | - |
| 1788673196 | 26.67° C | 38% | 1019.5 hPa | 0 mm | - | - | - |
| 1788672893 | 26.67° C | 37% | 1019.6 hPa | 0 mm | - | - | - |
| 1788672588 | 27.22° C | 36% | 1019.4 hPa | 0 mm | - | - | - |
| 1788672284 | 27.22° C | 35% | 1019.4 hPa | 0 mm | - | - | - |
| 1788671981 | 27.22° C | 35% | 1019.4 hPa | 0 mm | - | - | - |
| 1788671676 | 27.78° C | 35% | 1019.2 hPa | 0 mm | - | - | - |
| 1788671372 | 27.78° C | 35% | 1019.2 hPa | 0 mm | - | - | - |
| 1788671071 | 27.78° C | 35% | 1019.4 hPa | 0 mm | - | - | - |
| 1788670770 | 27.78° C | 35% | 1019.4 hPa | 0 mm | - | - | - |
| 1788670469 | 27.78° C | 35% | 1019.2 hPa | 0 mm | - | - | - |
* Rain latest hour (hover to see other rain measurements)
** Current wind speed in m/s (hover to see current wind gust speed)